Shelter Cove, California
Current Conditions -  °F | °C
As of 8:50 AM on Saturday 25 Oct 2014 (Local Time) from KFOT Reporting Station
Overcast Overcast  
Wind Chill: 59°   Ceiling: 3500
Heat Index: 59°   Visibility: 6mi
Dew Point: 55°   Wind: 17mph
Humidity: 88%   Direction: 150°SSE
Pressure: 29.67"   Gusts: 32mph
Location:  40.03°N, 124.07°W
Report Text: KFOT 251550Z AUTO 15015G28KT 6SM FEW028 BKN035 OVC045 15/13 A2967 RMK AO1 P0002
Loading
Personal Weather Stations






























Interactive Weather Map New forecast layout! Learn more

10-Day Weather Forecast

Advertisements
Track Severe Weather on mobile